Time;durP1;ratioP1;P1;durP2;ratioP2;P2;SDS_P1;SDS_P2;PMS_P1;PMS_P2;Temp;Humidity;BMP_temperature;BMP_pressure;BME280_temperature;BME280_humidity;BME280_pressure;Samples;Min_cycle;Max_cycle;Signal;HPM_P1;HPM_P2
2024/01/01 00:00:12;;;;;;;30.02;18.58;;;8.40;99.90;;;;;;5005580;28;20057;-35
2024/01/01 00:02:38;;;;;;;32.15;19.58;;;8.40;99.90;;;;;;5006140;28;20414;-36
2024/01/01 00:05:05;;;;;;;21.35;12.82;;;8.40;99.90;;;;;;5003631;28;20120;-36
2024/01/01 00:07:30;;;;;;;30.75;19.17;;;8.40;99.90;;;;;;5021135;28;20045;-35
2024/01/01 00:09:56;;;;;;;22.02;14.55;;;8.40;99.90;;;;;;5022058;28;20107;-35
2024/01/01 00:12:22;;;;;;;59.70;38.00;;;8.40;99.90;;;;;;5020827;28;20057;-36
2024/01/01 00:14:47;;;;;;;23.75;12.43;;;8.50;99.90;;;;;;5023802;28;20538;-35
2024/01/01 00:17:13;;;;;;;18.63;9.02;;;8.40;99.90;;;;;;5004968;28;20049;-36
2024/01/01 00:19:40;;;;;;;14.85;10.35;;;8.40;99.90;;;;;;5006243;28;20053;-35
2024/01/01 00:22:05;;;;;;;19.73;11.00;;;8.40;99.90;;;;;;5024024;28;20387;-36
2024/01/01 00:24:32;;;;;;;18.65;7.68;;;8.40;99.90;;;;;;5020275;28;20128;-35
2024/01/01 00:26:58;;;;;;;17.55;7.90;;;8.40;99.90;;;;;;5016616;28;20524;-37
2024/01/01 00:29:26;;;;;;;21.77;8.65;;;8.40;99.90;;;;;;5022772;28;20111;-38
2024/01/01 00:31:52;;;;;;;16.63;8.63;;;8.40;99.90;;;;;;5004980;28;20049;-35
2024/01/01 00:34:18;;;;;;;15.23;8.85;;;8.40;99.90;;;;;;5026783;28;20150;-36
2024/01/01 00:36:44;;;;;;;15.68;7.63;;;8.40;99.90;;;;;;5017476;28;20046;-34
2024/01/01 00:39:10;;;;;;;17.35;9.50;;;8.30;99.90;;;;;;5019920;28;20061;-34
2024/01/01 00:41:39;;;;;;;19.05;9.18;;;8.40;99.90;;;;;;5025500;28;20045;-35
2024/01/01 00:44:05;;;;;;;20.42;10.05;;;8.40;99.90;;;;;;5005080;28;20136;-35
2024/01/01 00:46:30;;;;;;;20.15;10.35;;;8.40;99.90;;;;;;5026226;28;20149;-35
2024/01/01 00:48:57;;;;;;;21.38;10.30;;;8.40;99.90;;;;;;5021706;28;20052;-35
2024/01/01 00:51:22;;;;;;;18.52;11.05;;;8.30;99.90;;;;;;5022580;28;20056;-35
2024/01/01 00:53:48;;;;;;;17.77;10.15;;;8.30;99.90;;;;;;5024354;28;20049;-34
2024/01/01 00:56:14;;;;;;;18.73;10.77;;;8.20;99.90;;;;;;5006363;28;20909;-35
2024/01/01 00:58:40;;;;;;;20.05;11.13;;;8.10;99.90;;;;;;5024926;28;20136;-35
2024/01/01 01:01:07;;;;;;;13.75;8.27;;;8.10;99.90;;;;;;5021310;28;20056;-35
2024/01/01 01:03:34;;;;;;;24.50;12.18;;;8.00;99.90;;;;;;5023148;28;20061;-35
2024/01/01 01:06:00;;;;;;;20.98;11.48;;;8.10;99.90;;;;;;5020282;28;20052;-35
2024/01/01 01:08:26;;;;;;;21.88;11.98;;;8.00;99.90;;;;;;5023140;28;20482;-35
2024/01/01 01:10:52;;;;;;;20.17;12.02;;;8.00;99.90;;;;;;5018070;28;20080;-35
2024/01/01 01:13:18;;;;;;;19.15;9.88;;;8.10;99.90;;;;;;5019981;28;20076;-35
2024/01/01 01:15:43;;;;;;;23.58;13.30;;;8.10;99.90;;;;;;5022525;28;20175;-35
2024/01/01 01:18:11;;;;;;;21.20;12.65;;;8.00;99.90;;;;;;5020596;28;20391;-35
2024/01/01 01:20:36;;;;;;;24.20;14.05;;;8.00;99.90;;;;;;5014303;28;20038;-35
2024/01/01 01:23:02;;;;;;;19.45;12.82;;;8.00;99.90;;;;;;5005406;28;20137;-35
2024/01/01 01:25:28;;;;;;;22.67;11.70;;;8.00;99.90;;;;;;5020476;28;20499;-36
2024/01/01 01:27:53;;;;;;;18.77;11.20;;;8.00;99.90;;;;;;5017611;28;20180;-34
2024/01/01 01:30:19;;;;;;;17.58;11.40;;;8.10;99.90;;;;;;4999173;28;20053;-34
2024/01/01 01:32:45;;;;;;;17.50;9.85;;;8.00;99.90;;;;;;5024258;28;20072;-35
2024/01/01 01:35:11;;;;;;;17.13;11.07;;;8.00;99.90;;;;;;5006396;28;20049;-34
2024/01/01 01:37:37;;;;;;;16.90;9.32;;;8.00;99.90;;;;;;5005794;28;20525;-34
2024/01/01 01:40:03;;;;;;;18.30;11.80;;;8.00;99.90;;;;;;5004065;28;20148;-34
2024/01/01 01:42:29;;;;;;;20.65;11.27;;;8.00;99.90;;;;;;5021544;28;20065;-35
2024/01/01 01:44:55;;;;;;;17.85;10.15;;;8.00;99.90;;;;;;5022720;28;20059;-35
2024/01/01 01:47:24;;;;;;;15.60;9.85;;;8.00;99.90;;;;;;5021083;28;20492;-35
2024/01/01 01:49:51;;;;;;;17.23;10.95;;;8.00;99.90;;;;;;5014761;28;20068;-35
2024/01/01 01:52:17;;;;;;;16.15;9.05;;;8.00;99.90;;;;;;5029944;28;20088;-35
2024/01/01 01:54:46;;;;;;;17.90;9.18;;;8.00;99.90;;;;;;5031048;28;20116;-35
2024/01/01 01:57:14;;;;;;;13.35;8.10;;;8.00;99.90;;;;;;5025160;28;20064;-35
2024/01/01 01:59:43;;;;;;;15.05;8.35;;;7.90;99.90;;;;;;5026721;28;20130;-35
2024/01/01 02:02:10;;;;;;;14.90;7.45;;;8.00;99.90;;;;;;5006737;28;20064;-35
2024/01/01 02:04:36;;;;;;;16.70;7.95;;;7.90;99.90;;;;;;5028997;28;20061;-35
2024/01/01 02:07:02;;;;;;;14.60;7.03;;;7.90;99.90;;;;;;5027885;28;20087;-35
2024/01/01 02:09:28;;;;;;;11.73;6.35;;;7.90;99.90;;;;;;5000469;28;20554;-35
2024/01/01 02:11:53;;;;;;;10.48;5.50;;;7.80;99.90;;;;;;5015025;28;20058;-35
2024/01/01 02:14:19;;;;;;;13.32;5.78;;;7.80;99.90;;;;;;5010875;28;20049;-36
2024/01/01 02:16:45;;;;;;;13.65;5.68;;;7.70;99.90;;;;;;5026795;28;21227;-37
2024/01/01 02:19:22;;;;;;;13.02;6.57;;;7.70;99.90;;;;;;5016856;28;20069;-36
2024/01/01 02:21:50;;;;;;;10.18;5.43;;;7.60;99.90;;;;;;5013690;28;20410;-37
2024/01/01 02:24:16;;;;;;;10.73;5.72;;;7.50;99.90;;;;;;5030501;28;20049;-38
2024/01/01 02:26:45;;;;;;;9.05;4.80;;;7.50;99.90;;;;;;5029045;28;20052;-35
2024/01/01 02:29:11;;;;;;;12.90;5.45;;;7.50;99.90;;;;;;5007482;28;20408;-36
2024/01/01 02:31:37;;;;;;;10.05;3.70;;;7.40;99.90;;;;;;5018330;28;20048;-34
2024/01/01 02:34:03;;;;;;;9.20;3.60;;;7.40;99.90;;;;;;5013978;28;20042;-34
2024/01/01 02:36:29;;;;;;;9.85;4.53;;;7.50;99.90;;;;;;5021548;28;20442;-35
2024/01/01 02:38:55;;;;;;;9.40;3.60;;;7.50;99.90;;;;;;5026329;28;20048;-35
2024/01/01 02:41:21;;;;;;;9.32;3.58;;;7.50;99.90;;;;;;5022233;28;20050;-36
2024/01/01 02:43:47;;;;;;;9.07;3.05;;;7.40;99.90;;;;;;5023017;28;20041;-35
2024/01/01 02:46:13;;;;;;;10.32;4.10;;;7.50;99.90;;;;;;5023315;28;20140;-35
2024/01/01 02:48:39;;;;;;;7.93;2.72;;;7.50;99.90;;;;;;5014520;28;20037;-35
2024/01/01 02:51:04;;;;;;;7.97;2.85;;;7.40;99.90;;;;;;5022427;28;20406;-34
2024/01/01 02:53:32;;;;;;;8.52;3.17;;;7.40;99.90;;;;;;5026991;28;20044;-34
2024/01/01 02:55:58;;;;;;;11.63;2.70;;;7.30;99.90;;;;;;5017987;28;20141;-35
2024/01/01 02:58:23;;;;;;;9.23;2.53;;;7.30;99.90;;;;;;5019684;28;20144;-35
2024/01/01 03:00:49;;;;;;;8.00;2.72;;;7.30;99.90;;;;;;5029040;28;20387;-35
2024/01/01 03:03:15;;;;;;;7.03;2.15;;;7.20;99.90;;;;;;5029649;28;20140;-35
2024/01/01 03:05:41;;;;;;;5.80;2.75;;;7.20;99.90;;;;;;5027599;28;20419;-35
2024/01/01 03:08:10;;;;;;;9.35;2.15;;;7.20;99.90;;;;;;5016324;28;20495;-35
2024/01/01 03:10:36;;;;;;;5.63;1.63;;;7.20;99.90;;;;;;5029844;28;20132;-35
2024/01/01 03:13:02;;;;;;;8.60;2.20;;;7.20;99.90;;;;;;5026061;28;20475;-35
2024/01/01 03:15:28;;;;;;;5.35;2.17;;;7.20;99.90;;;;;;5005369;28;20128;-35
2024/01/01 03:17:54;;;;;;;8.77;1.75;;;7.20;99.90;;;;;;5006646;28;20129;-35
2024/01/01 03:20:20;;;;;;;5.05;2.13;;;7.20;99.90;;;;;;5024053;28;20114;-35
2024/01/01 03:22:45;;;;;;;8.18;2.03;;;7.20;99.90;;;;;;5027229;28;20124;-35
2024/01/01 03:25:11;;;;;;;5.05;1.20;;;7.20;99.90;;;;;;5023727;28;20064;-36
2024/01/01 03:27:37;;;;;;;5.22;1.50;;;7.20;99.90;;;;;;5027563;28;20133;-33
2024/01/01 03:30:08;;;;;;;5.93;1.52;;;7.20;99.90;;;;;;5019275;28;20058;-34
2024/01/01 03:32:35;;;;;;;5.93;1.30;;;7.20;99.90;;;;;;5017457;28;20064;-35
2024/01/01 03:35:04;;;;;;;9.30;1.67;;;7.20;99.90;;;;;;4991039;28;20508;-34
2024/01/01 03:37:30;;;;;;;5.05;1.20;;;7.20;99.90;;;;;;5025131;28;20068;-34
2024/01/01 03:39:56;;;;;;;5.63;1.35;;;7.10;99.90;;;;;;5019378;28;20054;-34
2024/01/01 03:42:21;;;;;;;7.53;1.25;;;7.10;99.90;;;;;;5025249;28;20057;-33
2024/01/01 03:44:47;;;;;;;4.97;1.00;;;7.10;99.90;;;;;;5029409;28;20060;-33
2024/01/01 03:47:13;;;;;;;5.97;1.67;;;7.10;99.90;;;;;;5008102;28;20164;-33
2024/01/01 03:49:40;;;;;;;4.38;1.17;;;7.10;99.90;;;;;;5025126;28;20045;-33
2024/01/01 03:52:06;;;;;;;3.80;1.08;;;7.10;99.90;;;;;;5006868;28;20053;-34
2024/01/01 03:54:32;;;;;;;4.28;1.08;;;7.10;99.90;;;;;;5007351;28;20058;-35
2024/01/01 03:56:58;;;;;;;6.78;1.52;;;7.10;99.90;;;;;;5008214;28;20058;-35
2024/01/01 03:59:24;;;;;;;6.35;1.40;;;7.00;99.90;;;;;;5006010;28;20136;-35
2024/01/01 04:01:49;;;;;;;6.20;1.48;;;7.00;99.90;;;;;;5001856;28;20058;-35
2024/01/01 04:04:15;;;;;;;6.32;1.30;;;7.00;99.90;;;;;;5017391;28;20064;-35
2024/01/01 04:06:41;;;;;;;7.03;1.27;;;7.00;99.90;;;;;;5025726;28;20133;-35
2024/01/01 04:09:07;;;;;;;9.02;1.88;;;7.00;99.90;;;;;;5024305;28;20053;-34
2024/01/01 04:11:32;;;;;;;8.23;1.58;;;7.00;99.90;;;;;;5023524;28;20041;-34
2024/01/01 04:13:59;;;;;;;6.93;1.40;;;7.00;99.90;;;;;;5028115;28;20103;-34
2024/01/01 04:16:25;;;;;;;9.68;1.70;;;7.00;99.90;;;;;;5028094;28;20073;-34
2024/01/01 04:18:51;;;;;;;9.68;1.70;;;7.00;99.90;;;;;;5026629;28;20096;-35
2024/01/01 04:21:17;;;;;;;10.05;1.95;;;7.00;99.90;;;;;;5022138;28;20045;-34
2024/01/01 04:23:42;;;;;;;9.63;2.15;;;7.00;99.90;;;;;;5019908;28;20042;-34
2024/01/01 04:26:08;;;;;;;7.95;2.20;;;7.00;99.90;;;;;;5003874;28;20046;-34
2024/01/01 04:28:34;;;;;;;14.88;1.83;;;7.00;99.90;;;;;;5001968;28;20073;-35
2024/01/01 04:31:00;;;;;;;6.05;1.95;;;7.00;99.90;;;;;;5005184;28;20053;-34
2024/01/01 04:33:26;;;;;;;9.50;2.00;;;7.00;99.90;;;;;;5003455;28;20415;-35
2024/01/01 04:35:52;;;;;;;9.77;1.95;;;7.00;99.90;;;;;;5002289;28;20044;-34
2024/01/01 04:38:17;;;;;;;9.10;2.03;;;7.00;99.90;;;;;;5003635;28;20112;-35
2024/01/01 04:40:43;;;;;;;9.05;1.77;;;7.10;99.90;;;;;;5019045;28;20045;-35
2024/01/01 04:43:09;;;;;;;9.73;2.05;;;7.10;99.90;;;;;;5016260;28;20054;-34
2024/01/01 04:45:37;;;;;;;6.60;2.00;;;7.10;99.90;;;;;;5025308;28;20114;-34
2024/01/01 04:48:03;;;;;;;10.95;1.92;;;7.10;99.90;;;;;;5025146;28;20510;-35
2024/01/01 04:50:31;;;;;;;10.20;2.55;;;7.10;99.90;;;;;;4995914;28;20072;-34
2024/01/01 04:52:57;;;;;;;10.30;2.10;;;7.00;99.90;;;;;;5020906;28;20045;-35
2024/01/01 04:55:22;;;;;;;8.45;2.00;;;7.00;99.90;;;;;;4986999;28;20058;-34
2024/01/01 04:57:48;;;;;;;12.73;3.13;;;7.00;99.90;;;;;;5017733;28;20101;-35
2024/01/01 05:00:14;;;;;;;6.30;2.05;;;7.00;99.90;;;;;;5021268;28;20514;-34
2024/01/01 05:02:40;;;;;;;5.95;1.75;;;7.00;99.90;;;;;;5010434;28;20380;-35
2024/01/01 05:05:08;;;;;;;10.73;2.58;;;7.00;99.90;;;;;;5023583;28;20095;-35
2024/01/01 05:07:37;;;;;;;8.23;2.72;;;7.00;99.90;;;;;;5025655;28;20072;-35
2024/01/01 05:10:04;;;;;;;7.78;1.63;;;7.00;99.90;;;;;;5023841;28;20555;-35
2024/01/01 05:12:30;;;;;;;10.32;2.42;;;7.00;99.90;;;;;;5019164;28;20057;-35
2024/01/01 05:14:55;;;;;;;10.50;2.10;;;7.00;99.90;;;;;;5026748;28;20045;-35
2024/01/01 05:17:21;;;;;;;10.55;1.77;;;7.00;99.90;;;;;;5021848;28;20213;-34
2024/01/01 05:19:50;;;;;;;7.35;2.45;;;7.00;99.90;;;;;;5023556;28;20505;-34
2024/01/01 05:22:15;;;;;;;8.93;1.30;;;7.00;99.90;;;;;;5022010;28;20053;-35
2024/01/01 05:24:41;;;;;;;10.93;2.30;;;7.00;99.90;;;;;;5024362;28;20057;-35
2024/01/01 05:27:08;;;;;;;9.68;1.95;;;7.00;99.90;;;;;;5013787;28;20049;-35
2024/01/01 05:29:34;;;;;;;10.23;2.20;;;7.00;99.90;;;;;;5014441;28;20454;-35
2024/01/01 05:32:00;;;;;;;8.40;2.10;;;7.00;99.90;;;;;;5030634;28;20049;-34
2024/01/01 05:34:26;;;;;;;7.95;1.92;;;7.00;99.90;;;;;;5030374;28;20041;-36
2024/01/01 05:36:52;;;;;;;7.07;1.88;;;7.00;99.90;;;;;;5033242;28;20502;-35
2024/01/01 05:39:18;;;;;;;5.82;1.60;;;7.00;99.90;;;;;;5024811;28;20543;-35
2024/01/01 05:41:44;;;;;;;8.88;1.80;;;7.00;99.90;;;;;;5029661;28;20180;-36
2024/01/01 05:44:09;;;;;;;8.35;2.17;;;7.00;99.90;;;;;;5025927;28;20095;-35
2024/01/01 05:46:35;;;;;;;12.23;1.73;;;7.00;99.90;;;;;;5027924;28;20138;-35
2024/01/01 05:49:01;;;;;;;8.15;1.77;;;7.00;99.90;;;;;;5030510;28;20458;-34
2024/01/01 05:51:27;;;;;;;8.02;2.20;;;7.00;99.90;;;;;;5027160;28;20077;-35
2024/01/01 05:53:52;;;;;;;9.98;1.65;;;7.00;99.90;;;;;;5029286;28;20068;-34
2024/01/01 05:56:18;;;;;;;9.63;2.15;;;7.00;99.90;;;;;;5030873;28;20135;-33
2024/01/01 05:58:44;;;;;;;10.77;2.42;;;6.90;99.90;;;;;;5031218;28;20477;-35
2024/01/01 06:01:09;;;;;;;10.88;2.10;;;7.00;99.90;;;;;;5010210;28;20055;-34
2024/01/01 06:03:35;;;;;;;8.07;1.63;;;7.00;99.90;;;;;;5028141;28;20060;-35
2024/01/01 06:06:01;;;;;;;5.55;1.70;;;7.00;99.90;;;;;;5031972;28;20056;-35
2024/01/01 06:08:26;;;;;;;9.60;1.83;;;7.00;99.90;;;;;;5029951;28;20045;-34
2024/01/01 06:10:52;;;;;;;7.80;2.25;;;7.00;99.90;;;;;;5013672;28;20103;-36
2024/01/01 06:13:18;;;;;;;9.43;2.17;;;7.00;99.90;;;;;;5030710;28;20064;-34
2024/01/01 06:15:44;;;;;;;11.00;2.70;;;7.00;99.90;;;;;;5031440;28;20045;-35
2024/01/01 06:18:11;;;;;;;5.85;2.42;;;7.00;99.90;;;;;;5030468;28;20498;-35
2024/01/01 06:20:37;;;;;;;9.57;2.30;;;7.00;99.90;;;;;;5029363;28;20255;-35
2024/01/01 06:23:03;;;;;;;6.20;1.83;;;7.00;99.90;;;;;;5031618;28;20057;-35
2024/01/01 06:25:29;;;;;;;8.52;1.88;;;7.00;99.90;;;;;;5029520;28;20076;-35
2024/01/01 06:27:54;;;;;;;10.50;2.20;;;7.00;99.90;;;;;;5029927;28;20486;-34
2024/01/01 06:30:20;;;;;;;12.70;2.70;;;7.00;99.90;;;;;;5029988;28;20076;-35
2024/01/01 06:32:46;;;;;;;11.52;2.53;;;7.00;99.90;;;;;;5031634;28;20061;-34
2024/01/01 06:35:12;;;;;;;7.40;2.33;;;7.00;99.90;;;;;;5029299;28;20136;-35
2024/01/01 06:37:38;;;;;;;9.48;2.45;;;7.00;99.90;;;;;;5026550;28;20145;-35
2024/01/01 06:40:06;;;;;;;8.68;2.00;;;7.00;99.90;;;;;;5026837;28;20058;-35
2024/01/01 06:42:32;;;;;;;4.38;1.58;;;7.00;99.90;;;;;;5025019;28;20053;-35
2024/01/01 06:45:09;;;;;;;8.25;2.80;;;7.00;99.90;;;;;;5025115;28;20431;-35
2024/01/01 06:47:34;;;;;;;8.27;2.08;;;7.00;99.90;;;;;;5025180;28;20690;-35
2024/01/01 06:50:00;;;;;;;7.75;1.55;;;7.00;99.90;;;;;;5024351;28;20053;-35
2024/01/01 06:52:26;;;;;;;5.40;1.08;;;7.00;99.90;;;;;;5025758;28;20047;-35
2024/01/01 06:54:52;;;;;;;2.88;0.82;;;6.90;99.90;;;;;;5026699;28;20056;-35
2024/01/01 06:57:17;;;;;;;3.17;0.77;;;6.90;99.90;;;;;;5024583;28;20053;-35
2024/01/01 06:59:43;;;;;;;4.38;0.60;;;6.90;99.90;;;;;;5029393;28;20060;-35
2024/01/01 07:02:09;;;;;;;4.47;1.55;;;6.80;99.90;;;;;;5025084;28;20805;-35
2024/01/01 07:04:34;;;;;;;7.53;1.60;;;6.90;99.90;;;;;;5031517;28;20064;-35
2024/01/01 07:07:00;;;;;;;6.93;1.98;;;6.80;99.90;;;;;;5027259;28;20045;-35
2024/01/01 07:09:26;;;;;;;6.93;2.40;;;6.90;99.90;;;;;;5007937;28;20387;-35
2024/01/01 07:11:56;;;;;;;10.57;2.63;;;6.90;99.90;;;;;;5027309;28;20123;-35
2024/01/01 07:14:22;;;;;;;9.00;2.40;;;6.90;99.90;;;;;;5024466;28;20480;-35
2024/01/01 07:16:47;;;;;;;6.47;2.30;;;7.00;99.90;;;;;;5006809;28;20054;-35
2024/01/01 07:19:13;;;;;;;12.68;2.83;;;7.00;99.90;;;;;;5024683;28;20092;-37
2024/01/01 07:21:39;;;;;;;7.57;2.13;;;7.00;99.90;;;;;;5026583;28;20053;-34
2024/01/01 07:24:05;;;;;;;8.77;2.20;;;7.00;99.90;;;;;;5023972;28;20054;-35
2024/01/01 07:26:31;;;;;;;6.38;1.77;;;7.00;99.90;;;;;;5009463;28;20045;-34
2024/01/01 07:28:57;;;;;;;8.88;2.78;;;7.00;99.90;;;;;;5026128;28;20065;-34
2024/01/01 07:31:23;;;;;;;12.07;2.58;;;7.00;99.90;;;;;;5025577;28;20632;-34
2024/01/01 07:33:49;;;;;;;11.52;2.53;;;7.00;99.90;;;;;;5025435;28;20065;-34
2024/01/01 07:36:15;;;;;;;11.40;2.75;;;7.00;99.90;;;;;;5024787;28;20132;-34
2024/01/01 07:38:41;;;;;;;8.90;2.10;;;7.00;99.90;;;;;;5025956;28;20465;-34
2024/01/01 07:41:07;;;;;;;11.68;3.00;;;7.00;99.90;;;;;;5024809;28;20057;-35
2024/01/01 07:43:32;;;;;;;7.35;2.58;;;6.90;99.90;;;;;;5028019;28;20141;-34
2024/01/01 07:45:58;;;;;;;9.07;2.50;;;7.00;99.90;;;;;;5027189;28;20155;-35
2024/01/01 07:48:23;;;;;;;8.88;2.40;;;7.00;99.90;;;;;;5023124;28;20061;-35
2024/01/01 07:50:50;;;;;;;9.02;2.05;;;7.00;99.90;;;;;;5006999;28;20053;-35
2024/01/01 07:53:15;;;;;;;10.95;2.97;;;7.00;99.90;;;;;;5025824;28;20056;-34
2024/01/01 07:55:41;;;;;;;10.57;2.20;;;7.00;99.90;;;;;;5027895;28;20739;-35
2024/01/01 07:58:07;;;;;;;7.85;2.30;;;7.00;99.90;;;;;;5025776;28;20185;-34
2024/01/01 08:00:32;;;;;;;7.43;2.72;;;7.00;99.90;;;;;;5022001;28;20415;-34
2024/01/01 08:02:58;;;;;;;8.95;2.47;;;7.00;99.90;;;;;;5024343;28;20057;-34
2024/01/01 08:05:24;;;;;;;8.18;2.10;;;7.00;99.90;;;;;;5026675;28;20061;-34
2024/01/01 08:07:50;;;;;;;11.63;2.40;;;7.00;99.90;;;;;;5008514;28;20049;-35
2024/01/01 08:10:17;;;;;;;10.25;1.92;;;7.00;99.90;;;;;;5024483;28;20132;-35
2024/01/01 08:12:42;;;;;;;8.00;1.88;;;7.00;99.90;;;;;;5025878;28;20060;-34
2024/01/01 08:15:08;;;;;;;4.07;1.52;;;7.00;99.90;;;;;;5024773;28;20054;-34
2024/01/01 08:17:34;;;;;;;5.50;1.52;;;7.00;99.90;;;;;;5024279;28;20110;-34
2024/01/01 08:20:00;;;;;;;7.25;1.60;;;6.90;99.90;;;;;;5025043;28;20104;-34
2024/01/01 08:22:26;;;;;;;6.70;2.22;;;6.90;99.90;;;;;;5025399;28;20053;-35
2024/01/01 08:24:52;;;;;;;7.97;2.10;;;6.90;99.90;;;;;;5024484;28;20084;-34
2024/01/01 08:27:17;;;;;;;8.25;1.80;;;6.90;99.90;;;;;;5025108;28;20049;-35
2024/01/01 08:29:43;;;;;;;7.28;1.80;;;6.90;99.90;;;;;;5024064;28;20050;-35
2024/01/01 08:32:09;;;;;;;5.90;1.60;;;6.90;99.90;;;;;;5027736;28;20140;-35
2024/01/01 08:34:34;;;;;;;6.43;1.52;;;7.00;99.90;;;;;;5025849;28;20053;-35
2024/01/01 08:37:01;;;;;;;10.63;2.22;;;7.00;99.90;;;;;;5026069;28;20127;-35
2024/01/01 08:39:27;;;;;;;10.18;2.10;;;7.00;99.90;;;;;;5025114;28;20070;-35
2024/01/01 08:41:53;;;;;;;6.07;1.73;;;7.10;99.90;;;;;;5027007;28;20053;-35
2024/01/01 08:44:19;;;;;;;11.38;1.98;;;7.10;99.90;;;;;;5025853;28;20144;-35
2024/01/01 08:46:44;;;;;;;11.15;2.17;;;7.20;99.90;;;;;;5023867;28;20818;-36
2024/01/01 08:49:10;;;;;;;9.48;2.33;;;7.20;99.90;;;;;;5027125;28;20057;-35
2024/01/01 08:51:36;;;;;;;9.57;1.75;;;7.30;99.90;;;;;;5021459;28;20406;-36
2024/01/01 08:54:05;;;;;;;11.25;1.80;;;7.30;99.90;;;;;;5016811;28;20053;-35
2024/01/01 08:56:32;;;;;;;6.70;1.63;;;7.20;99.90;;;;;;5020510;28;20056;-35
2024/01/01 08:58:57;;;;;;;10.52;1.85;;;7.20;99.90;;;;;;5025693;28;20053;-36
2024/01/01 09:01:23;;;;;;;7.07;2.10;;;7.20;99.90;;;;;;5021782;28;20383;-36
2024/01/01 09:03:49;;;;;;;7.30;2.00;;;7.10;99.90;;;;;;5006097;28;20080;-36
2024/01/01 09:06:15;;;;;;;6.65;1.80;;;7.10;99.90;;;;;;5025359;28;20509;-35
2024/01/01 09:08:40;;;;;;;8.30;2.75;;;7.10;99.90;;;;;;4990869;28;20042;-35
2024/01/01 09:11:06;;;;;;;8.55;1.80;;;7.10;99.90;;;;;;5024614;28;20140;-36
2024/01/01 09:13:32;;;;;;;8.52;1.40;;;7.10;99.90;;;;;;5016362;28;20045;-35
2024/01/01 09:15:58;;;;;;;8.20;2.53;;;7.20;99.90;;;;;;5012118;28;20181;-35
2024/01/01 09:18:23;;;;;;;6.57;1.65;;;7.20;99.90;;;;;;5015609;28;20053;-35
2024/01/01 09:20:49;;;;;;;5.13;1.50;;;7.20;99.90;;;;;;5013157;28;20061;-35
2024/01/01 09:23:15;;;;;;;5.47;1.45;;;7.20;99.90;;;;;;5023067;28;20053;-34
2024/01/01 09:25:41;;;;;;;9.20;2.58;;;7.20;99.90;;;;;;5023810;28;20119;-35
2024/01/01 09:28:07;;;;;;;7.85;1.75;;;7.20;99.90;;;;;;5005526;28;20061;-35
2024/01/01 09:30:33;;;;;;;12.13;2.60;;;7.20;99.90;;;;;;5028993;28;20132;-35
2024/01/01 09:32:59;;;;;;;7.45;1.48;;;7.20;99.90;;;;;;5022004;28;20336;-34
2024/01/01 09:35:24;;;;;;;9.65;1.48;;;7.20;99.90;;;;;;5020939;28;20480;-35
2024/01/01 09:37:54;;;;;;;9.00;1.40;;;7.20;99.90;;;;;;5024003;28;20054;-34
2024/01/01 09:40:23;;;;;;;3.10;0.73;;;7.20;99.90;;;;;;5021248;28;20057;-35
2024/01/01 09:42:49;;;;;;;6.72;1.05;;;7.20;99.90;;;;;;5005629;28;20041;-35
2024/01/01 09:45:15;;;;;;;7.85;1.20;;;7.20;99.90;;;;;;5022539;28;20085;-35
2024/01/01 09:47:41;;;;;;;5.65;0.63;;;7.20;99.90;;;;;;5016791;28;20056;-35
2024/01/01 09:50:08;;;;;;;7.57;0.98;;;7.20;99.90;;;;;;5003676;28;20625;-35
2024/01/01 09:52:34;;;;;;;8.65;0.80;;;7.20;99.90;;;;;;5009900;28;20057;-35
2024/01/01 09:55:00;;;;;;;5.25;0.90;;;7.10;99.90;;;;;;4995855;28;20068;-34
2024/01/01 09:57:26;;;;;;;7.63;1.20;;;7.20;99.90;;;;;;5022189;28;20141;-36
2024/01/01 09:59:52;;;;;;;9.00;1.70;;;7.20;99.90;;;;;;5022231;28;20061;-35
2024/01/01 10:02:22;;;;;;;10.15;1.77;;;7.20;99.90;;;;;;5023361;28;20068;-34
2024/01/01 10:04:48;;;;;;;7.43;1.27;;;7.30;99.90;;;;;;5021533;28;21257;-34
2024/01/01 10:07:25;;;;;;;5.10;1.30;;;7.30;99.90;;;;;;5022709;28;20147;-35
2024/01/01 10:09:51;;;;;;;6.97;0.88;;;7.20;99.90;;;;;;5022445;28;20483;-35
2024/01/01 10:12:21;;;;;;;13.82;1.38;;;7.20;99.90;;;;;;5019753;28;20045;-35
2024/01/01 10:14:48;;;;;;;9.27;1.50;;;7.20;99.90;;;;;;5022499;28;20655;-35
2024/01/01 10:17:17;;;;;;;5.80;0.52;;;7.20;99.90;;;;;;5022366;28;20580;-34
2024/01/01 10:20:02;;;;;;;4.93;0.50;;;7.20;99.90;;;;;;5026283;28;20049;-35
2024/01/01 10:22:32;;;;;;;6.95;1.10;;;7.30;99.90;;;;;;5023417;28;20738;-35
2024/01/01 10:25:12;;;;;;;5.55;1.13;;;7.30;99.90;;;;;;5026516;28;20103;-35
2024/01/01 10:27:38;;;;;;;4.90;0.90;;;7.30;99.90;;;;;;5016434;28;20050;-34
2024/01/01 10:30:05;;;;;;;4.95;0.70;;;7.40;99.90;;;;;;4992402;28;20046;-35
2024/01/01 10:32:32;;;;;;;4.55;0.57;;;7.40;99.90;;;;;;5017682;28;20041;-36
2024/01/01 10:35:01;;;;;;;5.32;0.77;;;7.40;99.90;;;;;;5023906;28;20060;-36
2024/01/01 10:37:28;;;;;;;4.13;0.60;;;7.40;99.90;;;;;;5023092;28;20053;-34
2024/01/01 10:39:54;;;;;;;7.53;0.73;;;7.40;99.90;;;;;;5011792;28;20076;-34
2024/01/01 10:42:20;;;;;;;5.47;0.80;;;7.40;99.90;;;;;;5005465;28;20061;-35
2024/01/01 10:44:46;;;;;;;9.35;1.20;;;7.40;99.90;;;;;;5011621;28;20132;-36
2024/01/01 10:47:18;;;;;;;7.10;1.05;;;7.40;99.90;;;;;;5011302;28;20069;-35
2024/01/01 10:49:53;;;;;;;7.35;0.95;;;7.30;99.90;;;;;;5007889;28;20411;-36
2024/01/01 10:52:37;;;;;;;7.35;1.00;;;7.40;99.90;;;;;;5010206;28;20452;-35
2024/01/01 10:55:25;;;;;;;9.13;1.55;;;7.40;99.90;;;;;;5017525;28;20057;-35
2024/01/01 10:58:09;;;;;;;4.75;1.00;;;7.40;99.90;;;;;;5025849;28;20148;-35
2024/01/01 11:00:59;;;;;;;9.07;1.23;;;7.60;99.90;;;;;;5019034;28;20053;-35
2024/01/01 11:03:25;;;;;;;3.67;0.95;;;7.70;99.90;;;;;;5014711;28;20049;-34
2024/01/01 11:05:51;;;;;;;6.63;1.17;;;7.80;99.90;;;;;;5027936;28;20058;-35
2024/01/01 11:08:28;;;;;;;10.18;1.52;;;7.70;99.90;;;;;;5019192;28;20050;-35
2024/01/01 11:10:55;;;;;;;9.43;1.30;;;7.70;99.90;;;;;;5026542;28;20049;-35
2024/01/01 11:13:26;;;;;;;5.97;1.55;;;7.70;99.90;;;;;;5024684;28;20049;-36
2024/01/01 11:16:00;;;;;;;5.63;1.50;;;7.70;99.90;;;;;;5029025;28;20054;-36
2024/01/01 11:18:38;;;;;;;7.63;1.42;;;7.70;99.90;;;;;;5027525;28;20292;-36
2024/01/01 11:21:06;;;;;;;9.20;1.20;;;7.70;99.90;;;;;;5026352;28;20049;-37
2024/01/01 11:23:45;;;;;;;8.82;1.45;;;7.80;99.90;;;;;;5013555;28;20061;-36
2024/01/01 11:26:23;;;;;;;7.72;0.95;;;7.80;99.90;;;;;;5009646;28;20065;-37
2024/01/01 11:28:51;;;;;;;7.38;1.17;;;7.80;99.90;;;;;;5022597;28;20399;-36
2024/01/01 11:31:17;;;;;;;8.57;1.08;;;7.80;99.90;;;;;;5025274;28;20195;-36
2024/01/01 11:33:42;;;;;;;7.45;1.30;;;7.90;99.90;;;;;;5016564;28;20133;-35
2024/01/01 11:36:11;;;;;;;10.02;1.45;;;7.90;99.90;;;;;;5017780;28;20139;-36
2024/01/01 11:38:37;;;;;;;8.35;1.08;;;7.90;99.90;;;;;;5023797;28;20050;-35
2024/01/01 11:41:04;;;;;;;7.97;0.80;;;8.00;99.90;;;;;;5024229;28;20041;-35
2024/01/01 11:43:30;;;;;;;7.72;0.73;;;8.10;99.90;;;;;;5017288;28;20041;-35
2024/01/01 11:45:58;;;;;;;9.80;1.00;;;8.10;99.90;;;;;;5023989;28;20064;-35
2024/01/01 11:48:24;;;;;;;6.93;0.70;;;8.20;99.90;;;;;;5023747;28;20153;-35
2024/01/01 11:50:53;;;;;;;8.38;1.13;;;8.30;99.90;;;;;;5025721;28;20403;-36
2024/01/01 11:53:19;;;;;;;5.03;0.68;;;8.40;99.90;;;;;;5009848;28;20495;-35
2024/01/01 11:55:45;;;;;;;3.85;0.60;;;8.40;99.90;;;;;;5023543;28;20621;-35
2024/01/01 11:58:11;;;;;;;11.45;1.15;;;8.30;99.90;;;;;;5022263;28;20537;-36
2024/01/01 12:00:37;;;;;;;9.23;1.13;;;8.20;99.90;;;;;;5014044;28;20484;-35
2024/01/01 12:03:04;;;;;;;8.85;0.93;;;8.10;99.90;;;;;;5022167;28;20132;-35
2024/01/01 12:05:30;;;;;;;13.45;1.23;;;8.10;99.90;;;;;;5016589;28;20100;-35
2024/01/01 12:07:56;;;;;;;6.13;1.02;;;8.00;99.90;;;;;;5023575;28;20049;-35
2024/01/01 12:10:24;;;;;;;6.03;0.88;;;8.00;99.90;;;;;;5023600;28;20064;-34
2024/01/01 12:13:03;;;;;;;8.15;1.08;;;8.10;99.90;;;;;;5018125;28;20438;-35
2024/01/01 12:15:32;;;;;;;7.03;1.05;;;8.00;99.90;;;;;;5022240;28;20564;-35
2024/01/01 12:17:57;;;;;;;7.30;1.30;;;8.10;99.90;;;;;;5017544;28;20042;-35
2024/01/01 12:20:24;;;;;;;6.95;0.80;;;8.10;99.90;;;;;;5003062;28;20053;-35
2024/01/01 12:22:52;;;;;;;8.32;1.00;;;8.10;99.90;;;;;;5005112;28;20049;-35
2024/01/01 12:25:20;;;;;;;14.15;1.35;;;8.10;99.90;;;;;;5002521;28;20054;-35
2024/01/01 12:28:06;;;;;;;10.10;1.13;;;8.20;99.90;;;;;;5012671;28;20568;-37
2024/01/01 12:30:33;;;;;;;3.50;0.60;;;8.10;99.90;;;;;;5020051;28;20057;-35
2024/01/01 12:33:00;;;;;;;6.38;1.05;;;8.10;99.90;;;;;;5020174;28;20499;-36
2024/01/01 12:35:26;;;;;;;8.20;1.05;;;8.10;99.90;;;;;;5017900;28;20056;-35
2024/01/01 12:37:52;;;;;;;5.35;1.02;;;8.10;99.90;;;;;;5008941;28;20172;-36
2024/01/01 12:40:18;;;;;;;5.78;0.93;;;8.40;99.90;;;;;;5026546;28;20053;-37
2024/01/01 12:42:44;;;;;;;5.88;1.00;;;8.50;99.90;;;;;;5029333;28;20045;-40
2024/01/01 12:45:14;;;;;;;7.35;0.50;;;8.60;99.90;;;;;;5019569;28;20522;-35
2024/01/01 12:47:40;;;;;;;8.43;0.85;;;9.00;99.90;;;;;;4990003;28;20058;-36
2024/01/01 12:50:07;;;;;;;5.07;0.70;;;9.50;99.90;;;;;;5012711;28;20095;-36